createdAt,value
2023-01-27T00:00:54.523Z,35.83
2023-01-27T00:03:22.971Z,33.57
2023-01-27T00:05:51.229Z,33.60
2023-01-27T00:08:19.885Z,35.70
2023-01-27T00:11:07.920Z,34.27
2023-01-27T00:13:34.939Z,30.70
2023-01-27T00:16:04.475Z,32.57
2023-01-27T00:18:32.594Z,28.83
2023-01-27T00:21:18.165Z,31.37
2023-01-27T00:24:03.579Z,32.07
2023-01-27T00:26:31.648Z,34.00
2023-01-27T00:28:59.739Z,30.00
2023-01-27T00:31:46.686Z,32.00
2023-01-27T00:34:14.767Z,30.77
2023-01-27T00:36:43.556Z,33.43
2023-01-27T00:39:13.810Z,29.80
2023-01-27T00:41:44.803Z,29.57
2023-01-27T00:44:13.670Z,30.13
2023-01-27T00:46:44.045Z,29.67
2023-01-27T00:49:13.448Z,28.00
2023-01-27T00:51:41.736Z,29.07
2023-01-27T00:54:10.071Z,27.60
2023-01-27T00:56:39.507Z,27.57
2023-01-27T00:59:07.859Z,29.00
2023-01-27T01:01:36.170Z,25.50
2023-01-27T01:04:05.804Z,27.77
2023-01-27T01:06:33.861Z,28.03
2023-01-27T01:09:01.896Z,26.30
2023-01-27T01:11:29.991Z,24.17
2023-01-27T01:13:58.200Z,30.67
2023-01-27T01:16:27.089Z,26.70
2023-01-27T01:18:55.397Z,27.70
2023-01-27T01:21:24.913Z,24.70
2023-01-27T01:23:52.951Z,29.13
2023-01-27T01:26:21.020Z,25.93
2023-01-27T01:28:49.122Z,24.60
2023-01-27T01:31:19.071Z,24.83
2023-01-27T01:33:48.289Z,28.43
2023-01-27T01:36:18.383Z,23.77
2023-01-27T01:38:48.532Z,27.73
2023-01-27T01:41:19.980Z,26.93
2023-01-27T01:43:48.539Z,25.87
2023-01-27T01:46:17.183Z,26.40
2023-01-27T01:48:48.647Z,25.20
2023-01-27T01:51:21.339Z,24.87
2023-01-27T01:53:55.731Z,25.23
2023-01-27T01:56:27.055Z,29.90
2023-01-27T01:58:58.935Z,28.17
2023-01-27T02:01:27.006Z,26.13
2023-01-27T02:03:59.465Z,26.00
2023-01-27T02:06:27.709Z,29.27
2023-01-27T02:09:00.749Z,27.63
2023-01-27T02:11:30.206Z,25.70
2023-01-27T02:14:01.911Z,33.07
2023-01-27T02:16:31.208Z,24.47
2023-01-27T02:18:59.641Z,24.13
2023-01-27T02:21:27.714Z,29.00
2023-01-27T02:24:02.035Z,26.47
2023-01-27T02:26:34.687Z,21.47
2023-01-27T02:29:07.392Z,22.70
2023-01-27T02:31:35.974Z,24.73
2023-01-27T02:34:08.312Z,26.17
2023-01-27T02:36:40.815Z,25.10
2023-01-27T02:39:11.648Z,23.67
2023-01-27T02:41:44.461Z,26.37
2023-01-27T02:44:13.319Z,26.10
2023-01-27T02:46:41.412Z,24.57
2023-01-27T02:49:09.520Z,25.80
2023-01-27T02:51:37.779Z,26.97
2023-01-27T02:54:06.986Z,24.37
2023-01-27T02:56:35.266Z,27.77
2023-01-27T02:59:05.002Z,27.53
2023-01-27T03:01:38.025Z,23.90
2023-01-27T03:04:06.257Z,25.67
2023-01-27T03:06:35.457Z,28.37
2023-01-27T03:09:03.506Z,27.50
2023-01-27T03:11:49.178Z,25.63
2023-01-27T03:14:18.694Z,24.77
2023-01-27T03:17:06.592Z,26.47
2023-01-27T03:19:34.737Z,24.70
2023-01-27T03:22:04.682Z,28.70
2023-01-27T03:24:35.169Z,24.80
2023-01-27T03:27:07.017Z,26.40
2023-01-27T03:29:56.416Z,24.80
2023-01-27T03:32:25.759Z,25.20
2023-01-27T03:35:14.539Z,28.33
2023-01-27T03:38:02.198Z,29.00
2023-01-27T03:40:47.963Z,25.90
2023-01-27T03:43:33.552Z,29.97
2023-01-27T03:46:22.392Z,26.40
2023-01-27T03:48:52.461Z,29.20
2023-01-27T03:51:21.827Z,32.17
2023-01-27T03:53:50.206Z,24.80
2023-01-27T03:56:19.915Z,29.87
2023-01-27T03:58:49.762Z,28.13
2023-01-27T04:01:22.345Z,32.57
2023-01-27T04:04:09.410Z,28.20
2023-01-27T04:07:02.922Z,30.93
2023-01-27T04:09:33.070Z,31.30
2023-01-27T04:12:02.220Z,35.13
2023-01-27T04:14:32.112Z,33.67
2023-01-27T04:17:04.008Z,31.83
2023-01-27T04:19:32.469Z,32.67
2023-01-27T04:22:02.173Z,31.73
2023-01-27T04:24:30.491Z,32.10
2023-01-27T04:27:00.621Z,31.83
2023-01-27T04:29:30.382Z,31.17
2023-01-27T04:31:59.072Z,30.90
2023-01-27T04:34:29.175Z,36.57
2023-01-27T04:36:57.792Z,34.20
2023-01-27T04:39:26.549Z,32.73
2023-01-27T04:41:54.492Z,33.47
2023-01-27T04:44:22.455Z,34.83
2023-01-27T04:46:51.281Z,34.73
2023-01-27T04:49:19.688Z,35.80
2023-01-27T04:51:49.400Z,33.10
2023-01-27T04:54:17.797Z,28.20
2023-01-27T04:56:56.940Z,32.60
2023-01-27T04:59:25.159Z,33.10
2023-01-27T05:01:53.201Z,32.63
2023-01-27T05:04:21.563Z,35.03
2023-01-27T05:06:51.092Z,31.90
2023-01-27T05:09:19.169Z,33.83
2023-01-27T05:11:47.165Z,29.93
2023-01-27T05:14:15.244Z,28.67
2023-01-27T05:16:43.376Z,31.30
2023-01-27T05:19:11.381Z,32.70
2023-01-27T05:21:39.369Z,32.47
2023-01-27T05:24:09.036Z,27.27
2023-01-27T05:26:37.093Z,32.23
2023-01-27T05:29:05.074Z,30.60
2023-01-27T05:31:33.386Z,31.20
2023-01-27T05:34:02.903Z,28.33
2023-01-27T05:36:31.603Z,31.60
2023-01-27T05:39:00.614Z,30.03
2023-01-27T05:41:32.163Z,27.57
2023-01-27T05:44:00.285Z,27.27
2023-01-27T05:46:30.330Z,31.47
2023-01-27T05:49:01.586Z,33.13
2023-01-27T05:51:32.287Z,32.60
2023-01-27T05:54:00.660Z,37.27
2023-01-27T05:56:30.279Z,29.40
2023-01-27T05:58:59.560Z,29.40
2023-01-27T06:01:29.370Z,32.17
2023-01-27T06:03:57.717Z,32.57
2023-01-27T06:06:27.287Z,33.77
2023-01-27T06:08:55.455Z,29.93
2023-01-27T06:11:24.350Z,30.07
2023-01-27T06:13:54.957Z,29.33
2023-01-27T06:16:24.446Z,28.37
2023-01-27T06:18:52.770Z,27.70
2023-01-27T06:21:21.263Z,29.80
2023-01-27T06:23:49.793Z,27.27
2023-01-27T06:26:20.518Z,32.27
2023-01-27T06:28:48.868Z,29.63
2023-01-27T06:31:22.140Z,27.93
2023-01-27T06:33:50.647Z,28.83
2023-01-27T06:36:19.924Z,30.43
2023-01-27T06:38:49.084Z,28.60
2023-01-27T06:41:17.163Z,30.90
2023-01-27T06:43:45.145Z,27.20
2023-01-27T06:46:13.421Z,28.60
2023-01-27T06:48:42.998Z,27.43
2023-01-27T06:51:11.242Z,27.20
2023-01-27T06:53:39.241Z,28.63
2023-01-27T06:56:07.828Z,27.03
2023-01-27T06:58:35.948Z,28.67
2023-01-27T07:01:06.532Z,28.73
2023-01-27T07:03:37.625Z,27.60
2023-01-27T07:06:07.818Z,26.30
2023-01-27T07:08:35.871Z,28.87
2023-01-27T07:11:05.602Z,28.47
2023-01-27T07:13:33.645Z,24.07
2023-01-27T07:16:01.645Z,24.53
2023-01-27T07:18:29.973Z,26.03
2023-01-27T07:20:57.955Z,29.83
2023-01-27T07:23:27.293Z,26.47
2023-01-27T07:25:55.500Z,28.60
2023-01-27T07:28:23.554Z,27.97
2023-01-27T07:30:51.672Z,30.77
2023-01-27T07:33:19.646Z,27.13
2023-01-27T07:35:50.439Z,30.97
2023-01-27T07:38:18.576Z,31.03
2023-01-27T07:40:47.991Z,26.87
2023-01-27T07:43:15.987Z,27.27
2023-01-27T07:45:48.858Z,29.33
2023-01-27T07:48:17.402Z,28.43
2023-01-27T07:50:45.359Z,28.50
2023-01-27T07:53:13.444Z,33.77
2023-01-27T07:55:41.456Z,28.13
2023-01-27T07:58:11.233Z,28.90
2023-01-27T08:00:39.498Z,30.20
2023-01-27T08:03:07.596Z,32.57
2023-01-27T08:05:38.506Z,29.53
2023-01-27T08:08:07.019Z,30.10
2023-01-27T08:10:34.981Z,27.47
2023-01-27T08:13:03.003Z,28.87
2023-01-27T08:15:32.396Z,28.23
2023-01-27T08:18:01.809Z,28.57
2023-01-27T08:20:30.666Z,27.67
2023-01-27T08:22:58.612Z,29.63
2023-01-27T08:25:26.925Z,29.37
2023-01-27T08:27:56.617Z,32.13
2023-01-27T08:30:25.087Z,31.73
2023-01-27T08:32:54.882Z,33.17
2023-01-27T08:35:22.932Z,31.53
2023-01-27T08:37:51.644Z,27.63
2023-01-27T08:40:19.938Z,27.53
2023-01-27T08:42:47.927Z,27.53
2023-01-27T08:45:15.956Z,29.67
2023-01-27T08:47:44.058Z,31.93
2023-01-27T08:50:14.066Z,30.23
2023-01-27T08:52:42.494Z,34.00
2023-01-27T08:55:10.620Z,30.87
2023-01-27T08:57:38.912Z,29.97
2023-01-27T09:00:08.690Z,34.03
2023-01-27T09:02:36.935Z,26.27
2023-01-27T09:05:05.155Z,30.30
2023-01-27T09:07:35.447Z,27.80
2023-01-27T09:10:14.035Z,31.00
2023-01-27T09:12:43.943Z,33.30
2023-01-27T09:15:13.422Z,32.43
2023-01-27T09:17:42.298Z,28.57
2023-01-27T09:20:12.115Z,32.37
2023-01-27T09:22:42.392Z,27.77
2023-01-27T09:25:15.059Z,27.37
2023-01-27T09:27:43.091Z,27.63
2023-01-27T09:30:13.512Z,28.90
2023-01-27T09:32:42.183Z,27.83
2023-01-27T09:35:11.477Z,29.57
2023-01-27T09:37:46.032Z,27.60
2023-01-27T09:40:24.518Z,26.67
2023-01-27T09:43:16.485Z,27.40
2023-01-27T09:46:08.562Z,29.33
2023-01-27T09:48:53.489Z,30.67
2023-01-27T09:51:29.746Z,28.07
2023-01-27T09:54:12.372Z,30.70
2023-01-27T09:56:47.852Z,28.60
2023-01-27T09:59:39.999Z,28.07
2023-01-27T10:02:21.310Z,27.53
2023-01-27T10:05:18.303Z,26.20
2023-01-27T10:08:02.276Z,27.43
2023-01-27T10:10:46.505Z,26.50
2023-01-27T10:13:28.855Z,26.57
2023-01-27T10:16:11.276Z,27.03
2023-01-27T10:18:55.777Z,27.70
2023-01-27T10:21:31.668Z,30.90
2023-01-27T10:24:08.428Z,31.13
2023-01-27T10:26:42.610Z,33.00
2023-01-27T10:29:13.065Z,28.93
2023-01-27T10:31:49.712Z,28.03
2023-01-27T10:34:25.394Z,28.80
2023-01-27T10:37:05.032Z,31.27
2023-01-27T10:39:44.240Z,30.70
2023-01-27T10:42:26.230Z,29.67
2023-01-27T10:45:12.037Z,26.70
2023-01-27T10:47:57.186Z,30.17
2023-01-27T10:50:30.754Z,29.90
2023-01-27T10:53:03.057Z,28.50
2023-01-27T10:55:39.093Z,26.13
2023-01-27T10:58:16.336Z,30.23
2023-01-27T11:01:18.093Z,27.87
2023-01-27T11:03:41.278Z,26.47
2023-01-27T11:06:15.519Z,26.87
2023-01-27T11:08:47.943Z,27.73
2023-01-27T11:11:36.204Z,29.47
2023-01-27T11:14:16.073Z,25.77
2023-01-27T11:16:47.732Z,27.00
2023-01-27T11:19:24.905Z,30.53
2023-01-27T11:22:06.543Z,25.73
2023-01-27T11:24:44.875Z,28.27
2023-01-27T11:27:21.029Z,27.67
2023-01-27T11:29:56.328Z,27.17
2023-01-27T11:32:34.835Z,26.07
2023-01-27T11:35:06.118Z,27.00
2023-01-27T11:37:38.483Z,30.90
2023-01-27T11:40:16.197Z,31.97
2023-01-27T11:42:44.829Z,26.67
2023-01-27T11:45:18.104Z,27.73
2023-01-27T11:47:48.358Z,31.13
2023-01-27T11:50:18.481Z,29.27
2023-01-27T11:52:50.697Z,26.47
2023-01-27T11:55:22.676Z,27.23
2023-01-27T11:57:53.917Z,27.93
2023-01-27T12:00:26.521Z,24.83
2023-01-27T12:03:02.260Z,26.57
2023-01-27T12:05:34.742Z,25.80
2023-01-27T12:08:04.654Z,28.17
2023-01-27T12:10:34.603Z,25.93
2023-01-27T12:13:09.752Z,24.67
2023-01-27T12:15:48.514Z,24.73
2023-01-27T12:18:17.255Z,24.80
2023-01-27T12:20:47.313Z,26.57
2023-01-27T12:23:23.324Z,24.93
2023-01-27T12:25:55.895Z,27.57
2023-01-27T12:28:31.069Z,28.93
2023-01-27T12:31:07.072Z,27.87
2023-01-27T12:33:37.546Z,27.40
2023-01-27T12:36:15.400Z,25.93
2023-01-27T12:38:49.894Z,22.80
2023-01-27T12:41:24.964Z,25.77
2023-01-27T12:43:55.841Z,21.53
2023-01-27T12:46:26.805Z,25.13
2023-01-27T12:49:02.660Z,24.67
2023-01-27T12:51:41.166Z,24.60
2023-01-27T12:54:22.925Z,25.63
2023-01-27T12:56:52.431Z,29.57
2023-01-27T12:59:22.426Z,25.90
2023-01-27T13:02:03.430Z,27.53
2023-01-27T13:04:31.809Z,25.70
2023-01-27T13:07:08.148Z,25.13
2023-01-27T13:09:39.757Z,27.30
2023-01-27T13:12:17.755Z,27.90
2023-01-27T13:14:45.837Z,26.00
2023-01-27T13:17:37.004Z,25.60
2023-01-27T13:20:15.004Z,24.07
2023-01-27T13:22:46.525Z,26.97
2023-01-27T13:25:20.335Z,25.20
2023-01-27T13:27:50.963Z,26.83
2023-01-27T13:30:28.206Z,29.47
2023-01-27T13:33:04.345Z,26.63
2023-01-27T13:35:38.218Z,25.43
2023-01-27T13:38:17.355Z,26.73
2023-01-27T13:40:47.731Z,25.47
2023-01-27T13:43:23.537Z,25.50
2023-01-27T13:45:55.718Z,25.77
2023-01-27T13:48:30.750Z,27.77
2023-01-27T13:51:07.867Z,29.37
2023-01-27T13:53:36.556Z,29.67
2023-01-27T13:56:18.073Z,26.60
2023-01-27T13:58:55.023Z,25.53
2023-01-27T14:01:27.194Z,25.13
2023-01-27T14:04:37.362Z,23.93
2023-01-27T14:07:19.414Z,26.00
2023-01-27T14:09:59.719Z,26.93
2023-01-27T14:12:42.542Z,27.63
2023-01-27T14:15:24.344Z,24.77
2023-01-27T14:17:58.479Z,28.27
2023-01-27T14:20:42.388Z,22.67
2023-01-27T14:23:23.568Z,28.23
2023-01-27T14:26:04.265Z,23.77
2023-01-27T14:28:41.924Z,22.03
2023-01-27T14:31:15.050Z,21.00
2023-01-27T14:33:54.828Z,22.60
2023-01-27T14:36:29.576Z,21.07
2023-01-27T14:39:04.608Z,20.17
2023-01-27T14:41:39.448Z,22.67
2023-01-27T14:44:17.100Z,19.30
2023-01-27T14:46:59.042Z,21.57
2023-01-27T14:49:42.053Z,21.40
2023-01-27T14:52:24.589Z,24.30
2023-01-27T14:55:25.941Z,17.57
2023-01-27T14:58:01.184Z,20.37
2023-01-27T15:00:42.657Z,17.23
2023-01-27T15:03:34.202Z,18.37
2023-01-27T15:06:07.151Z,18.57
2023-01-27T15:08:43.911Z,20.47
2023-01-27T15:11:40.080Z,19.57
2023-01-27T15:14:24.403Z,17.20
2023-01-27T15:17:12.201Z,17.70
2023-01-27T15:19:56.859Z,18.17
2023-01-27T15:22:56.436Z,17.10
2023-01-27T15:25:35.063Z,17.80
2023-01-27T15:28:04.519Z,19.23
2023-01-27T15:30:37.530Z,20.37
2023-01-27T15:33:44.488Z,18.57
2023-01-27T15:36:33.349Z,16.97
2023-01-27T15:39:26.001Z,19.80
2023-01-27T15:42:16.620Z,16.03
2023-01-27T15:45:00.896Z,16.50
2023-01-27T15:47:31.258Z,17.67
2023-01-27T15:50:15.534Z,15.43
2023-01-27T15:52:46.048Z,17.13
2023-01-27T15:55:27.304Z,16.20
2023-01-27T15:58:06.332Z,20.50
2023-01-27T16:00:38.017Z,15.93
2023-01-27T16:03:15.999Z,17.80
2023-01-27T16:05:47.072Z,18.10
2023-01-27T16:08:17.276Z,19.33
2023-01-27T16:10:45.582Z,18.50
2023-01-27T16:13:23.267Z,16.80
2023-01-27T16:15:51.625Z,18.07
2023-01-27T16:18:26.474Z,17.27
2023-01-27T16:21:02.453Z,18.73
2023-01-27T16:23:39.345Z,16.73
2023-01-27T16:26:30.464Z,19.53
2023-01-27T16:29:07.510Z,14.77
2023-01-27T16:31:38.042Z,16.70
2023-01-27T16:34:16.179Z,16.80
2023-01-27T16:36:44.283Z,16.80
2023-01-27T16:39:28.310Z,16.33
2023-01-27T16:41:59.545Z,16.87
2023-01-27T16:44:34.733Z,16.80
2023-01-27T16:47:16.446Z,16.20
2023-01-27T16:49:46.165Z,15.40
2023-01-27T16:52:21.251Z,13.40
2023-01-27T16:54:55.595Z,17.17
2023-01-27T16:57:34.516Z,16.83
2023-01-27T17:00:08.385Z,17.73
2023-01-27T17:02:37.076Z,15.90
2023-01-27T17:05:14.743Z,18.30
2023-01-27T17:07:48.145Z,13.60
2023-01-27T17:10:33.017Z,16.23
2023-01-27T17:13:02.177Z,14.67
2023-01-27T17:15:37.654Z,14.20
2023-01-27T17:18:10.292Z,15.13
2023-01-27T17:20:42.203Z,15.33
2023-01-27T17:23:23.334Z,16.87
2023-01-27T17:25:51.957Z,15.80
2023-01-27T17:28:26.546Z,15.23
2023-01-27T17:31:06.379Z,13.17
2023-01-27T17:33:36.992Z,14.50
2023-01-27T17:36:10.228Z,14.57
2023-01-27T17:38:46.431Z,13.70
2023-01-27T17:41:35.613Z,15.33
2023-01-27T17:44:05.340Z,16.37
2023-01-27T17:46:35.671Z,16.97
2023-01-27T17:49:07.019Z,16.17
2023-01-27T17:51:38.454Z,15.43
2023-01-27T17:54:20.575Z,15.03
2023-01-27T17:56:50.611Z,15.60
2023-01-27T17:59:22.208Z,14.27
2023-01-27T18:01:54.432Z,14.70
2023-01-27T18:04:23.786Z,13.73
2023-01-27T18:06:52.737Z,14.27
2023-01-27T18:09:25.203Z,15.23
2023-01-27T18:11:56.258Z,14.27
2023-01-27T18:14:24.894Z,13.27
2023-01-27T18:17:02.830Z,14.40
2023-01-27T18:19:30.941Z,15.13
2023-01-27T18:22:12.502Z,16.63
2023-01-27T18:24:41.449Z,14.53
2023-01-27T18:27:28.507Z,16.60
2023-01-27T18:30:02.664Z,12.70
2023-01-27T18:32:39.545Z,13.80
2023-01-27T18:35:26.584Z,13.53
2023-01-27T18:37:58.439Z,11.47
2023-01-27T18:40:30.797Z,12.40
2023-01-27T18:43:00.588Z,14.10
2023-01-27T18:45:29.196Z,15.53
2023-01-27T18:47:59.577Z,12.93
2023-01-27T18:50:29.013Z,14.80
2023-01-27T18:52:57.445Z,15.63
2023-01-27T18:55:26.936Z,14.77
2023-01-27T18:57:56.525Z,14.67
2023-01-27T19:00:26.081Z,13.87
2023-01-27T19:02:59.111Z,15.93
2023-01-27T19:05:30.478Z,13.23
2023-01-27T19:07:58.671Z,16.20
2023-01-27T19:10:29.466Z,13.03
2023-01-27T19:12:59.366Z,14.67
2023-01-27T19:15:29.405Z,15.83
2023-01-27T19:17:59.574Z,15.20
2023-01-27T19:20:31.150Z,14.70
2023-01-27T19:23:00.249Z,13.47
2023-01-27T19:25:31.336Z,15.57
2023-01-27T19:28:04.669Z,13.63
2023-01-27T19:30:36.205Z,13.00
2023-01-27T19:33:05.892Z,16.67
2023-01-27T19:35:36.667Z,14.13
2023-01-27T19:38:05.941Z,13.20
2023-01-27T19:40:34.435Z,16.57
2023-01-27T19:43:02.575Z,13.47
2023-01-27T19:45:30.556Z,17.50
2023-01-27T19:47:59.891Z,15.70
2023-01-27T19:50:30.714Z,14.00
2023-01-27T19:53:00.111Z,14.77
2023-01-27T19:55:28.184Z,17.40
2023-01-27T19:57:56.129Z,16.33
2023-01-27T20:00:26.874Z,13.03
2023-01-27T20:02:55.206Z,13.87
2023-01-27T20:05:24.107Z,16.43
2023-01-27T20:07:53.607Z,15.43
2023-01-27T20:10:25.686Z,13.97
2023-01-27T20:12:55.735Z,12.90
2023-01-27T20:15:24.532Z,12.60
2023-01-27T20:17:53.673Z,14.00
2023-01-27T20:20:22.633Z,13.30
2023-01-27T20:22:50.684Z,14.63
2023-01-27T20:25:20.871Z,14.63
2023-01-27T20:27:51.996Z,15.53
2023-01-27T20:30:20.964Z,15.97
2023-01-27T20:32:48.942Z,16.53
2023-01-27T20:35:18.826Z,14.07
2023-01-27T20:37:48.651Z,13.03
2023-01-27T20:40:18.550Z,12.47
2023-01-27T20:42:46.583Z,12.13
2023-01-27T20:45:16.575Z,14.97
2023-01-27T20:47:48.855Z,15.20
2023-01-27T20:50:17.411Z,12.43
2023-01-27T20:52:47.778Z,13.73
2023-01-27T20:55:16.750Z,14.03
2023-01-27T20:57:45.012Z,13.40
2023-01-27T21:00:19.346Z,15.23
2023-01-27T21:02:47.891Z,16.57
2023-01-27T21:05:16.478Z,14.87
2023-01-27T21:07:44.859Z,11.90
2023-01-27T21:10:13.334Z,14.20
2023-01-27T21:12:41.408Z,16.00
2023-01-27T21:15:11.019Z,12.83
2023-01-27T21:17:40.405Z,13.60
2023-01-27T21:20:10.002Z,15.00
2023-01-27T21:22:37.990Z,15.50
2023-01-27T21:25:06.671Z,14.00
2023-01-27T21:27:35.916Z,16.03
2023-01-27T21:30:03.936Z,13.20
2023-01-27T21:32:31.981Z,18.07
2023-01-27T21:35:01.386Z,14.33
2023-01-27T21:37:29.335Z,16.57
2023-01-27T21:39:57.331Z,15.10
2023-01-27T21:42:42.947Z,15.77
2023-01-27T21:45:15.317Z,14.27
2023-01-27T21:47:44.140Z,14.53
2023-01-27T21:50:14.951Z,15.80
2023-01-27T21:52:45.546Z,15.90
2023-01-27T21:55:16.411Z,15.83
2023-01-27T21:57:46.172Z,17.47
2023-01-27T22:00:16.615Z,15.70
2023-01-27T22:02:44.936Z,17.50
2023-01-27T22:05:14.611Z,18.10
2023-01-27T22:07:42.838Z,16.67
2023-01-27T22:10:15.794Z,17.30
2023-01-27T22:12:44.126Z,18.00
2023-01-27T22:15:14.385Z,15.40
2023-01-27T22:17:42.807Z,14.67
2023-01-27T22:20:15.563Z,14.77
2023-01-27T22:22:44.320Z,16.20
2023-01-27T22:25:15.411Z,17.13
2023-01-27T22:27:44.019Z,18.67
2023-01-27T22:30:14.468Z,17.43
2023-01-27T22:32:42.504Z,16.17
2023-01-27T22:35:11.969Z,16.63
2023-01-27T22:37:41.675Z,14.40
2023-01-27T22:40:11.340Z,16.40
2023-01-27T22:42:40.119Z,16.43
2023-01-27T22:45:09.987Z,16.73
2023-01-27T22:47:38.053Z,17.30
2023-01-27T22:50:06.614Z,16.17
2023-01-27T22:52:36.126Z,15.97
2023-01-27T22:55:05.765Z,14.83
2023-01-27T22:57:34.106Z,17.00
2023-01-27T23:00:02.364Z,17.47
2023-01-27T23:02:30.716Z,14.67
2023-01-27T23:04:58.871Z,18.33
2023-01-27T23:07:27.104Z,16.47
2023-01-27T23:09:55.104Z,16.10
2023-01-27T23:12:24.474Z,17.30
2023-01-27T23:14:52.440Z,18.47
2023-01-27T23:17:20.437Z,16.13
2023-01-27T23:19:48.400Z,17.50
2023-01-27T23:22:16.452Z,18.53
2023-01-27T23:24:44.453Z,18.03
2023-01-27T23:27:12.432Z,17.63
2023-01-27T23:29:41.864Z,16.30
2023-01-27T23:32:09.806Z,16.50
2023-01-27T23:34:37.796Z,16.10
2023-01-27T23:37:05.843Z,18.30
2023-01-27T23:39:33.834Z,19.03
2023-01-27T23:42:01.803Z,17.83
2023-01-27T23:44:29.783Z,17.43
2023-01-27T23:46:59.170Z,18.37
2023-01-27T23:49:27.115Z,17.67
2023-01-27T23:51:55.108Z,18.77
2023-01-27T23:54:23.065Z,17.80
2023-01-27T23:56:51.461Z,20.50
2023-01-27T23:59:19.474Z,15.97
